createdAt,value
2019-06-01T00:01:24.394Z,17.80
2019-06-01T00:04:28.144Z,17.80
2019-06-01T00:07:31.903Z,17.70
2019-06-01T00:10:35.972Z,17.70
2019-06-01T00:13:39.666Z,17.70
2019-06-01T00:16:44.131Z,17.60
2019-06-01T00:19:48.280Z,17.60
2019-06-01T00:22:52.056Z,17.50
2019-06-01T00:25:55.785Z,17.50
2019-06-01T00:28:59.466Z,17.50
2019-06-01T00:32:03.154Z,17.40
2019-06-01T00:35:07.052Z,17.30
2019-06-01T00:38:10.961Z,17.30
2019-06-01T00:41:14.733Z,17.30
2019-06-01T00:44:18.398Z,17.30
2019-06-01T00:47:22.187Z,17.30
2019-06-01T00:50:25.910Z,17.30
2019-06-01T00:53:29.594Z,17.20
2019-06-01T00:56:33.331Z,17.30
2019-06-01T00:59:37.005Z,17.20
2019-06-01T01:02:40.695Z,17.20
2019-06-01T01:05:44.675Z,17.20
2019-06-01T01:08:49.017Z,17.10
2019-06-01T01:11:53.324Z,17.10
2019-06-01T01:14:57.074Z,17.00
2019-06-01T01:18:00.881Z,17.00
2019-06-01T01:21:04.594Z,17.00
2019-06-01T01:24:08.886Z,17.00
2019-06-01T01:27:12.626Z,17.00
2019-06-01T01:30:16.678Z,17.00
2019-06-01T01:33:20.368Z,16.90
2019-06-01T01:36:24.058Z,16.90
2019-06-01T01:39:27.783Z,16.90
2019-06-01T01:42:31.497Z,16.90
2019-06-01T01:45:35.284Z,16.90
2019-06-01T01:48:39.080Z,16.80
2019-06-01T01:51:42.826Z,16.80
2019-06-01T01:54:46.502Z,16.80
2019-06-01T01:57:51.183Z,16.80
2019-06-01T02:00:56.844Z,16.80
2019-06-01T02:04:01.147Z,16.80
2019-06-01T02:07:04.985Z,16.70
2019-06-01T02:10:10.458Z,16.80
2019-06-01T02:13:14.218Z,16.80
2019-06-01T02:16:17.966Z,16.80
2019-06-01T02:19:21.665Z,16.80
2019-06-01T02:22:25.490Z,16.70
2019-06-01T02:25:29.246Z,16.70
2019-06-01T02:28:32.962Z,16.60
2019-06-01T02:31:42.504Z,16.60
2019-06-01T02:34:42.157Z,16.60
2019-06-01T02:37:45.961Z,16.60
2019-06-01T02:40:49.753Z,16.60
2019-06-01T02:43:54.658Z,16.60
2019-06-01T02:46:59.535Z,16.60
2019-06-01T02:50:04.523Z,16.50
2019-06-01T02:53:09.773Z,16.50
2019-06-01T02:56:13.475Z,16.50
2019-06-01T02:59:17.235Z,16.50
2019-06-01T03:02:20.952Z,16.60
2019-06-01T03:05:25.687Z,16.50
2019-06-01T03:08:31.043Z,16.60
2019-06-01T03:11:36.025Z,16.50
2019-06-01T03:14:41.650Z,16.50
2019-06-01T03:17:48.370Z,16.50
2019-06-01T03:20:54.066Z,16.50
2019-06-01T03:24:01.864Z,16.50
2019-06-01T03:27:06.352Z,16.50
2019-06-01T03:30:14.618Z,16.50
2019-06-01T03:33:16.611Z,16.50
2019-06-01T03:36:20.319Z,16.50
2019-06-01T03:39:24.107Z,16.50
2019-06-01T03:42:27.837Z,16.50
2019-06-01T03:45:31.515Z,16.50
2019-06-01T03:48:35.368Z,16.50
2019-06-01T03:51:39.086Z,16.50
2019-06-01T03:54:42.818Z,16.50
2019-06-01T03:57:46.535Z,16.50
2019-06-01T04:00:50.236Z,16.50
2019-06-01T04:03:53.986Z,16.60
2019-06-01T04:06:57.755Z,16.60
2019-06-01T04:10:01.823Z,16.60
2019-06-01T04:13:05.810Z,16.60
2019-06-01T04:16:09.999Z,16.70
2019-06-01T04:19:13.822Z,16.60
2019-06-01T04:22:17.468Z,16.70
2019-06-01T04:25:21.195Z,16.70
2019-06-01T04:28:24.903Z,16.80
2019-06-01T04:31:28.766Z,16.80
2019-06-01T04:34:35.643Z,16.70
2019-06-01T04:37:37.885Z,16.80
2019-06-01T04:40:41.678Z,16.80
2019-06-01T04:43:45.352Z,16.90
2019-06-01T04:46:49.069Z,16.90
2019-06-01T04:49:52.745Z,17.00
2019-06-01T04:52:56.459Z,17.20
2019-06-01T04:56:00.238Z,17.40
2019-06-01T04:59:04.916Z,17.70
2019-06-01T05:02:09.315Z,17.90
2019-06-01T05:05:15.213Z,18.10
2019-06-01T05:08:19.229Z,18.40
2019-06-01T05:11:22.907Z,18.60
2019-06-01T05:14:26.605Z,18.80
2019-06-01T05:17:30.268Z,19.00
2019-06-01T05:20:34.018Z,19.10
2019-06-01T05:23:37.716Z,19.40
2019-06-01T05:26:41.386Z,19.80
2019-06-01T05:29:45.145Z,19.90
2019-06-01T05:32:48.835Z,20.30
2019-06-01T05:35:52.600Z,20.50
2019-06-01T05:38:56.326Z,20.40
2019-06-01T05:42:00.063Z,20.40
2019-06-01T05:45:04.186Z,20.30
2019-06-01T05:48:07.897Z,20.30
2019-06-01T05:51:13.797Z,20.20
2019-06-01T05:54:18.739Z,20.30
2019-06-01T05:57:23.295Z,20.10
2019-06-01T06:00:41.362Z,20.10
2019-06-01T06:03:45.158Z,20.10
2019-06-01T06:06:48.856Z,20.00
2019-06-01T06:09:52.562Z,20.10
2019-06-01T06:12:56.282Z,20.20
2019-06-01T06:15:59.981Z,20.30
2019-06-01T06:19:03.721Z,20.30
2019-06-01T06:22:07.502Z,20.30
2019-06-01T06:25:13.997Z,20.50
2019-06-01T06:28:16.758Z,20.60
2019-06-01T06:31:21.172Z,20.50
2019-06-01T06:34:24.901Z,20.30
2019-06-01T06:37:28.634Z,20.20
2019-06-01T06:40:32.425Z,20.10
2019-06-01T06:43:36.273Z,20.70
2019-06-01T06:46:40.117Z,20.90
2019-06-01T06:49:43.901Z,21.20
2019-06-01T06:52:48.015Z,21.30
2019-06-01T06:55:51.758Z,21.40
2019-06-01T06:58:55.449Z,21.50
2019-06-01T07:01:59.203Z,21.60
2019-06-01T07:05:02.897Z,22.00
2019-06-01T07:08:06.623Z,22.10
2019-06-01T07:11:12.014Z,22.50
2019-06-01T07:14:15.975Z,22.90
2019-06-01T07:17:19.727Z,23.00
2019-06-01T07:20:23.753Z,22.90
2019-06-01T07:23:27.980Z,22.90
2019-06-01T07:26:32.371Z,22.90
2019-06-01T07:29:36.183Z,22.70
2019-06-01T07:32:45.988Z,23.00
2019-06-01T07:35:49.823Z,23.30
2019-06-01T07:38:53.544Z,23.30
2019-06-01T07:41:57.290Z,22.90
2019-06-01T07:45:01.074Z,23.00
2019-06-01T07:48:04.975Z,23.00
2019-06-01T07:51:08.731Z,23.00
2019-06-01T07:54:12.492Z,23.20
2019-06-01T07:57:16.310Z,23.30
2019-06-01T08:00:22.204Z,23.30
2019-06-01T08:03:28.722Z,23.00
2019-06-01T08:06:32.709Z,22.80
2019-06-01T08:09:36.811Z,22.90
2019-06-01T08:12:40.530Z,22.80
2019-06-01T08:15:44.413Z,23.00
2019-06-01T08:18:48.205Z,23.30
2019-06-01T08:21:51.923Z,23.60
2019-06-01T08:24:55.720Z,23.60
2019-06-01T08:27:59.406Z,23.80
2019-06-01T08:31:03.112Z,24.00
2019-06-01T08:34:06.946Z,24.20
2019-06-01T08:37:11.595Z,24.30
2019-06-01T08:40:15.579Z,24.30
2019-06-01T08:43:19.257Z,24.30
2019-06-01T08:46:23.686Z,24.20
2019-06-01T08:49:28.040Z,24.20
2019-06-01T08:52:32.282Z,24.40
2019-06-01T08:55:36.123Z,24.60
2019-06-01T08:58:39.840Z,24.60
2019-06-01T09:01:43.516Z,24.10
2019-06-01T09:04:47.270Z,23.90
2019-06-01T09:07:51.104Z,23.90
2019-06-01T09:10:54.835Z,24.10
2019-06-01T09:13:58.630Z,24.20
2019-06-01T09:17:02.345Z,24.30
2019-06-01T09:20:06.718Z,24.50
2019-06-01T09:23:10.407Z,24.80
2019-06-01T09:26:14.139Z,24.90
2019-06-01T09:29:17.960Z,24.90
2019-06-01T09:32:21.630Z,24.90
2019-06-01T09:35:46.047Z,24.60
2019-06-01T09:38:31.587Z,24.90
2019-06-01T09:41:36.459Z,25.00
2019-06-01T09:44:40.297Z,24.80
2019-06-01T09:47:44.112Z,24.70
2019-06-01T09:50:47.955Z,24.90
2019-06-01T09:53:51.691Z,25.10
2019-06-01T09:56:55.485Z,25.10
2019-06-01T09:59:59.194Z,25.10
2019-06-01T10:03:02.914Z,24.80
2019-06-01T10:06:06.698Z,24.70
2019-06-01T10:09:10.507Z,25.00
2019-06-01T10:12:14.748Z,25.10
2019-06-01T10:15:18.565Z,24.90
2019-06-01T10:18:22.358Z,25.00
2019-06-01T10:21:26.198Z,25.10
2019-06-01T10:24:30.967Z,25.10
2019-06-01T10:27:34.931Z,25.10
2019-06-01T10:30:39.953Z,25.10
2019-06-01T10:33:43.717Z,25.20
2019-06-01T10:36:47.483Z,25.40
2019-06-01T10:39:51.291Z,25.40
2019-06-01T10:42:55.110Z,25.50
2019-06-01T10:45:58.921Z,25.60
2019-06-01T10:49:02.650Z,25.80
2019-06-01T10:52:06.377Z,25.90
2019-06-01T10:55:10.546Z,26.00
2019-06-01T10:58:14.198Z,26.10
2019-06-01T11:01:17.906Z,26.10
2019-06-01T11:04:21.708Z,26.10
2019-06-01T11:07:25.474Z,26.00
2019-06-01T11:10:29.181Z,26.00
2019-06-01T11:13:33.099Z,26.10
2019-06-01T11:16:37.267Z,26.00
2019-06-01T11:19:42.025Z,26.10
2019-06-01T11:22:45.939Z,26.10
2019-06-01T11:25:49.651Z,26.10
2019-06-01T11:28:53.437Z,25.70
2019-06-01T11:31:57.150Z,25.40
2019-06-01T11:35:01.111Z,25.50
2019-06-01T11:38:05.092Z,25.70
2019-06-01T11:41:08.943Z,25.90
2019-06-01T11:44:12.752Z,26.10
2019-06-01T11:47:16.523Z,26.30
2019-06-01T11:50:23.391Z,26.40
2019-06-01T11:53:27.034Z,26.40
2019-06-01T11:56:30.749Z,26.50
2019-06-01T11:59:35.289Z,26.70
2019-06-01T12:02:39.662Z,26.80
2019-06-01T12:05:44.141Z,27.00
2019-06-01T12:08:47.889Z,26.90
2019-06-01T12:11:51.645Z,26.90
2019-06-01T12:14:55.390Z,26.90
2019-06-01T12:17:59.110Z,26.90
2019-06-01T12:21:02.870Z,26.70
2019-06-01T12:24:06.613Z,26.90
2019-06-01T12:27:10.399Z,26.80
2019-06-01T12:30:15.101Z,26.80
2019-06-01T12:33:18.834Z,26.90
2019-06-01T12:36:22.761Z,27.00
2019-06-01T12:39:26.441Z,27.10
2019-06-01T12:42:30.158Z,27.20
2019-06-01T12:45:33.860Z,27.20
2019-06-01T12:48:37.558Z,27.10
2019-06-01T12:51:42.519Z,26.70
2019-06-01T12:54:46.729Z,26.90
2019-06-01T12:57:51.335Z,27.10
2019-06-01T13:00:55.639Z,27.10
2019-06-01T13:03:59.439Z,27.10
2019-06-01T13:07:03.100Z,27.10
2019-06-01T13:10:07.726Z,27.10
2019-06-01T13:13:11.577Z,27.20
2019-06-01T13:16:15.351Z,27.40
2019-06-01T13:19:19.063Z,27.60
2019-06-01T13:22:22.758Z,27.80
2019-06-01T13:25:26.494Z,27.80
2019-06-01T13:28:38.237Z,27.80
2019-06-01T13:31:35.666Z,27.90
2019-06-01T13:34:39.485Z,28.00
2019-06-01T13:37:44.410Z,28.10
2019-06-01T13:40:49.068Z,28.20
2019-06-01T13:43:53.447Z,28.10
2019-06-01T13:46:57.420Z,28.00
2019-06-01T13:50:10.553Z,28.00
2019-06-01T13:53:14.296Z,27.90
2019-06-01T13:56:18.066Z,28.00
2019-06-01T13:59:21.900Z,28.00
2019-06-01T14:02:25.759Z,28.10
2019-06-01T14:05:29.413Z,28.20
2019-06-01T14:08:33.198Z,28.20
2019-06-01T14:11:36.910Z,28.00
2019-06-01T14:14:40.654Z,28.10
2019-06-01T14:17:44.439Z,27.90
2019-06-01T14:20:49.587Z,28.10
2019-06-01T14:23:54.037Z,28.20
2019-06-01T14:26:57.910Z,28.50
2019-06-01T14:30:01.616Z,28.60
2019-06-01T14:36:26.327Z,28.80
2019-06-01T14:39:30.114Z,28.70
2019-06-01T14:42:33.966Z,28.60
2019-06-01T14:45:37.668Z,28.70
2019-06-01T14:48:41.386Z,28.80
2019-06-01T14:51:45.062Z,28.50
2019-06-01T14:54:49.625Z,28.70
2019-06-01T14:57:53.994Z,28.90
2019-06-01T15:00:58.521Z,28.90
2019-06-01T15:04:02.451Z,28.90
2019-06-01T15:07:06.316Z,28.90
2019-06-01T15:10:11.094Z,28.70
2019-06-01T15:13:14.791Z,28.80
2019-06-01T15:16:18.493Z,28.70
2019-06-01T15:19:22.218Z,28.70
2019-06-01T15:22:26.000Z,28.90
2019-06-01T15:25:29.707Z,28.90
2019-06-01T15:28:33.474Z,28.80
2019-06-01T15:31:37.140Z,28.60
2019-06-01T15:34:41.159Z,28.60
2019-06-01T15:37:44.946Z,28.50
2019-06-01T15:40:48.705Z,28.50
2019-06-01T15:43:52.898Z,28.40
2019-06-01T15:46:57.729Z,28.40
2019-06-01T15:50:05.323Z,28.40
2019-06-01T15:53:09.040Z,28.40
2019-06-01T15:56:12.962Z,28.40
2019-06-01T15:59:16.647Z,28.40
2019-06-01T16:02:20.581Z,28.30
2019-06-01T16:05:24.434Z,28.40
2019-06-01T16:08:28.215Z,28.30
2019-06-01T16:11:31.958Z,28.20
2019-06-01T16:14:35.678Z,28.10
2019-06-01T16:17:39.482Z,28.00
2019-06-01T16:20:43.165Z,28.00
2019-06-01T16:23:50.280Z,27.80
2019-06-01T16:26:52.271Z,27.80
2019-06-01T16:29:56.854Z,27.80
2019-06-01T16:33:00.749Z,27.70
2019-06-01T16:36:05.629Z,27.60
2019-06-01T16:39:09.637Z,27.60
2019-06-01T16:42:13.375Z,27.40
2019-06-01T16:45:17.345Z,27.30
2019-06-01T16:48:21.101Z,27.30
2019-06-01T16:51:24.846Z,27.20
2019-06-01T16:54:28.613Z,27.10
2019-06-01T16:57:32.362Z,27.10
2019-06-01T17:00:36.186Z,27.00
2019-06-01T17:03:39.929Z,26.90
2019-06-01T17:06:44.706Z,26.80
2019-06-01T17:09:49.110Z,26.70
2019-06-01T17:12:52.803Z,26.60
2019-06-01T17:15:56.896Z,26.50
2019-06-01T17:19:01.053Z,26.50
2019-06-01T17:22:05.589Z,26.40
2019-06-01T17:25:09.937Z,26.30
2019-06-01T17:28:13.747Z,26.20
2019-06-01T17:31:17.546Z,26.10
2019-06-01T17:34:21.254Z,26.00
2019-06-01T17:37:24.997Z,26.00
2019-06-01T17:40:37.455Z,26.00
2019-06-01T17:43:34.270Z,25.90
2019-06-01T17:46:52.306Z,25.80
2019-06-01T17:49:43.348Z,25.80
2019-06-01T17:52:47.223Z,25.70
2019-06-01T17:55:50.888Z,25.70
2019-06-01T17:58:54.667Z,25.60
2019-06-01T18:01:58.374Z,25.50
2019-06-01T18:05:02.199Z,25.50
2019-06-01T18:08:06.373Z,25.40
2019-06-01T18:11:10.515Z,25.30
2019-06-01T18:14:14.338Z,25.30
2019-06-01T18:17:18.074Z,25.20
2019-06-01T18:20:22.111Z,25.10
2019-06-01T18:23:25.849Z,25.00
2019-06-01T18:26:29.586Z,24.90
2019-06-01T18:29:33.324Z,24.90
2019-06-01T18:32:37.113Z,24.90
2019-06-01T18:35:40.843Z,24.80
2019-06-01T18:38:47.006Z,24.80
2019-06-01T18:41:50.977Z,24.70
2019-06-01T18:44:54.724Z,24.60
2019-06-01T18:47:58.519Z,24.50
2019-06-01T18:51:02.270Z,24.40
2019-06-01T18:54:06.673Z,24.30
2019-06-01T18:57:17.522Z,24.30
2019-06-01T19:00:17.778Z,24.20
2019-06-01T19:03:21.598Z,24.10
2019-06-01T19:06:25.310Z,24.10
2019-06-01T19:09:29.045Z,24.00
2019-06-01T19:12:32.759Z,23.90
2019-06-01T19:15:36.474Z,23.80
2019-06-01T19:18:40.221Z,23.60
2019-06-01T19:21:44.114Z,23.50
2019-06-01T19:24:47.837Z,23.40
2019-06-01T19:27:51.560Z,23.30
2019-06-01T19:30:55.253Z,23.20
2019-06-01T19:33:59.191Z,23.00
2019-06-01T19:37:03.396Z,22.90
2019-06-01T19:40:07.277Z,22.80
2019-06-01T19:43:11.506Z,22.70
2019-06-01T19:46:15.932Z,22.60
2019-06-01T19:49:19.762Z,22.50
2019-06-01T19:52:23.448Z,22.40
2019-06-01T19:55:27.309Z,22.30
2019-06-01T19:58:31.450Z,22.20
2019-06-01T20:01:35.197Z,22.10
2019-06-01T20:04:38.959Z,22.00
2019-06-01T20:07:42.808Z,21.90
2019-06-01T20:10:46.481Z,21.80
2019-06-01T20:13:50.202Z,21.70
2019-06-01T20:16:54.053Z,21.70
2019-06-01T20:19:57.832Z,21.60
2019-06-01T20:23:01.582Z,21.50
2019-06-01T20:26:05.515Z,21.40
2019-06-01T20:29:09.255Z,21.30
2019-06-01T20:32:13.825Z,21.30
2019-06-01T20:35:18.119Z,21.20
2019-06-01T20:38:23.304Z,21.20
2019-06-01T20:41:27.146Z,21.10
2019-06-01T20:44:30.911Z,21.00
2019-06-01T20:47:34.621Z,21.00
2019-06-01T20:50:38.320Z,20.90
2019-06-01T20:53:42.183Z,20.90
2019-06-01T20:56:45.888Z,20.80
2019-06-01T20:59:49.599Z,20.70
2019-06-01T21:02:53.269Z,20.70
2019-06-01T21:05:57.093Z,20.60
2019-06-01T21:09:00.834Z,20.60
2019-06-01T21:12:04.715Z,20.50
2019-06-01T21:15:08.809Z,20.50
2019-06-01T21:18:12.582Z,20.40
2019-06-01T21:21:16.424Z,20.40
2019-06-01T21:24:21.242Z,20.30
2019-06-01T21:27:25.045Z,20.30
2019-06-01T21:30:28.814Z,20.30
2019-06-01T21:33:32.558Z,20.20
2019-06-01T21:36:36.293Z,20.20
2019-06-01T21:39:40.014Z,20.10
2019-06-01T21:43:00.395Z,20.10
2019-06-01T21:45:49.321Z,20.00
2019-06-01T21:48:53.054Z,20.00
2019-06-01T21:51:56.822Z,20.00
2019-06-01T21:55:00.498Z,19.90
2019-06-01T21:58:04.292Z,19.90
2019-06-01T22:01:08.140Z,19.80
2019-06-01T22:04:11.786Z,19.80
2019-06-01T22:07:16.952Z,19.80
2019-06-01T22:10:21.134Z,19.80
2019-06-01T22:13:27.138Z,19.80
2019-06-01T22:16:31.285Z,19.80
2019-06-01T22:19:35.007Z,20.00
2019-06-01T22:22:38.684Z,20.10
2019-06-01T22:25:42.389Z,20.20
2019-06-01T22:28:46.105Z,20.20
2019-06-01T22:31:49.863Z,20.30
2019-06-01T22:34:53.531Z,20.30
2019-06-01T22:37:57.276Z,20.30
2019-06-01T22:41:00.960Z,20.20
2019-06-01T22:44:04.705Z,20.20
2019-06-01T22:47:08.499Z,20.10
2019-06-01T22:50:12.439Z,20.10
2019-06-01T22:53:16.942Z,20.00
2019-06-01T22:56:21.182Z,20.00
2019-06-01T22:59:24.946Z,20.00
2019-06-01T23:02:29.840Z,19.90
2019-06-01T23:05:33.709Z,19.80
2019-06-01T23:08:37.443Z,19.80
2019-06-01T23:11:41.208Z,19.70
2019-06-01T23:14:44.950Z,19.70
2019-06-01T23:17:48.661Z,19.60
2019-06-01T23:20:52.425Z,19.60
2019-06-01T23:23:56.238Z,19.50
2019-06-01T23:26:59.945Z,19.50
2019-06-01T23:30:03.735Z,19.40
2019-06-01T23:33:07.405Z,19.30
2019-06-01T23:36:11.077Z,19.30
2019-06-01T23:39:14.806Z,19.30
2019-06-01T23:42:18.645Z,19.20
2019-06-01T23:45:22.565Z,19.10
2019-06-01T23:48:27.204Z,19.10
2019-06-01T23:51:31.896Z,19.10
2019-06-01T23:54:35.666Z,19.00
2019-06-01T23:57:39.365Z,18.90
